sensor_id;sensor_type;location;lat;lon;timestamp;pressure;altitude;pressure_sealevel;temperature;humidity
35647;BME280;28680;45.642;13.756;2023-01-15T00:15:52;101579.81;;;9.40;100.00
35647;BME280;28680;45.642;13.756;2023-01-15T00:18:20;101583.25;;;9.41;100.00
35647;BME280;28680;45.642;13.756;2023-01-15T01:54:24;101536.91;;;9.12;100.00
35647;BME280;28680;45.642;13.756;2023-01-15T01:56:52;101543.19;;;9.10;100.00
35647;BME280;28680;45.642;13.756;2023-01-15T02:03:12;101536.78;;;9.00;100.00
35647;BME280;28680;45.642;13.756;2023-01-15T02:06:15;101532.06;;;9.06;100.00
35647;BME280;28680;45.642;13.756;2023-01-15T03:33:01;101408.59;;;9.68;100.00
35647;BME280;28680;45.642;13.756;2023-01-15T03:52:01;101386.63;;;9.84;100.00
35647;BME280;28680;45.642;13.756;2023-01-15T04:02:34;101378.47;;;9.88;100.00
35647;BME280;28680;45.642;13.756;2023-01-15T04:15:05;101372.63;;;9.98;100.00
35647;BME280;28680;45.642;13.756;2023-01-15T04:28:24;101359.59;;;9.83;100.00
35647;BME280;28680;45.642;13.756;2023-01-15T04:30:56;101362.72;;;9.75;100.00
35647;BME280;28680;45.642;13.756;2023-01-15T04:37:08;101352.09;;;9.77;100.00
35647;BME280;28680;45.642;13.756;2023-01-15T04:39:43;101347.50;;;9.81;100.00
35647;BME280;28680;45.642;13.756;2023-01-15T04:42:45;101343.41;;;9.76;100.00
35647;BME280;28680;45.642;13.756;2023-01-15T04:48:59;101333.16;;;9.86;100.00
35647;BME280;28680;45.642;13.756;2023-01-15T04:51:25;101334.44;;;9.93;100.00
35647;BME280;28680;45.642;13.756;2023-01-15T05:06:10;101316.34;;;9.76;100.00
35647;BME280;28680;45.642;13.756;2023-01-15T05:15:19;101296.44;;;9.73;100.00
35647;BME280;28680;45.642;13.756;2023-01-15T05:17:55;101289.59;;;9.71;100.00
35647;BME280;28680;45.642;13.756;2023-01-15T05:20:27;101285.50;;;9.67;100.00
35647;BME280;28680;45.642;13.756;2023-01-15T05:22:53;101293.78;;;9.61;100.00
35647;BME280;28680;45.642;13.756;2023-01-15T05:28:03;101283.09;;;9.76;100.00
35647;BME280;28680;45.642;13.756;2023-01-15T05:30:29;101284.91;;;9.76;100.00
35647;BME280;28680;45.642;13.756;2023-01-15T05:33:04;101288.31;;;9.64;100.00
35647;BME280;28680;45.642;13.756;2023-01-15T05:35:39;101293.31;;;9.54;100.00
35647;BME280;28680;45.642;13.756;2023-01-15T05:38:05;101283.25;;;9.48;100.00
35647;BME280;28680;45.642;13.756;2023-01-15T05:44:12;101285.56;;;9.52;100.00
35647;BME280;28680;45.642;13.756;2023-01-15T05:49:18;101284.13;;;9.61;100.00
35647;BME280;28680;45.642;13.756;2023-01-15T05:51:54;101280.50;;;9.76;100.00
35647;BME280;28680;45.642;13.756;2023-01-15T05:54:32;101285.53;;;9.80;100.00
35647;BME280;28680;45.642;13.756;2023-01-15T05:56:58;101276.53;;;9.84;100.00
35647;BME280;28680;45.642;13.756;2023-01-15T05:59:32;101285.44;;;9.81;100.00
35647;BME280;28680;45.642;13.756;2023-01-15T06:01:58;101276.63;;;9.82;100.00
35647;BME280;28680;45.642;13.756;2023-01-15T06:04:31;101271.38;;;9.82;100.00
35647;BME280;28680;45.642;13.756;2023-01-15T06:13:19;101258.91;;;9.86;100.00
35647;BME280;28680;45.642;13.756;2023-01-15T06:15:48;101257.13;;;9.86;100.00
35647;BME280;28680;45.642;13.756;2023-01-15T06:18:14;101259.44;;;9.91;100.00
35647;BME280;28680;45.642;13.756;2023-01-15T06:20:52;101254.72;;;9.96;100.00
35647;BME280;28680;45.642;13.756;2023-01-15T06:23:18;101265.97;;;9.98;100.00
35647;BME280;28680;45.642;13.756;2023-01-15T06:25:48;101259.75;;;9.99;100.00
35647;BME280;28680;45.642;13.756;2023-01-15T06:45:24;101276.03;;;10.04;100.00
35647;BME280;28680;45.642;13.756;2023-01-15T07:49:43;101288.84;;;10.22;100.00
35647;BME280;28680;45.642;13.756;2023-01-15T07:59:32;101266.44;;;10.30;100.00
35647;BME280;28680;45.642;13.756;2023-01-15T08:01:58;101262.91;;;10.30;100.00
35647;BME280;28680;45.642;13.756;2023-01-15T08:04:27;101260.00;;;10.34;100.00
35647;BME280;28680;45.642;13.756;2023-01-15T08:06:53;101244.91;;;10.38;100.00
35647;BME280;28680;45.642;13.756;2023-01-15T08:09:19;101240.59;;;10.37;100.00
35647;BME280;28680;45.642;13.756;2023-01-15T08:11:45;101233.97;;;10.44;100.00
35647;BME280;28680;45.642;13.756;2023-01-15T08:14:30;101238.78;;;10.50;100.00
35647;BME280;28680;45.642;13.756;2023-01-15T08:17:15;101230.47;;;10.57;100.00
35647;BME280;28680;45.642;13.756;2023-01-15T08:19:41;101222.19;;;10.63;100.00
35647;BME280;28680;45.642;13.756;2023-01-15T09:20:47;101210.84;;;11.23;100.00
35647;BME280;28680;45.642;13.756;2023-01-15T09:26:42;101207.84;;;11.28;100.00
35647;BME280;28680;45.642;13.756;2023-01-15T09:40:56;101211.44;;;11.27;100.00
35647;BME280;28680;45.642;13.756;2023-01-15T09:44:08;101204.53;;;11.37;100.00
35647;BME280;28680;45.642;13.756;2023-01-15T09:46:58;101193.31;;;11.35;100.00
35647;BME280;28680;45.642;13.756;2023-01-15T09:49:56;101205.16;;;11.41;100.00
35647;BME280;28680;45.642;13.756;2023-01-15T09:52:55;101187.63;;;11.52;100.00
35647;BME280;28680;45.642;13.756;2023-01-15T09:55:27;101190.16;;;11.54;100.00
35647;BME280;28680;45.642;13.756;2023-01-15T09:58:01;101176.66;;;11.59;100.00
35647;BME280;28680;45.642;13.756;2023-01-15T10:00:38;101184.53;;;11.47;100.00
35647;BME280;28680;45.642;13.756;2023-01-15T10:08:46;101185.09;;;11.51;100.00
35647;BME280;28680;45.642;13.756;2023-01-15T10:13:54;101175.66;;;11.48;100.00
35647;BME280;28680;45.642;13.756;2023-01-15T10:16:27;101175.19;;;11.55;100.00
35647;BME280;28680;45.642;13.756;2023-01-15T10:18:54;101175.19;;;11.55;100.00
35647;BME280;28680;45.642;13.756;2023-01-15T10:24:37;101159.56;;;11.53;100.00
35647;BME280;28680;45.642;13.756;2023-01-15T10:27:20;101162.34;;;11.63;100.00
35647;BME280;28680;45.642;13.756;2023-01-15T10:30:11;101157.19;;;11.61;100.00
35647;BME280;28680;45.642;13.756;2023-01-15T10:39:20;101142.25;;;11.62;100.00
35647;BME280;28680;45.642;13.756;2023-01-15T10:47:44;101129.91;;;11.51;100.00
35647;BME280;28680;45.642;13.756;2023-01-15T10:50:22;101129.06;;;11.50;100.00
35647;BME280;28680;45.642;13.756;2023-01-15T10:53:20;101127.16;;;11.52;100.00
35647;BME280;28680;45.642;13.756;2023-01-15T11:01:42;101124.19;;;11.57;100.00
35647;BME280;28680;45.642;13.756;2023-01-15T11:04:49;101116.53;;;11.54;100.00
35647;BME280;28680;45.642;13.756;2023-01-15T11:07:41;101114.88;;;11.53;100.00
35647;BME280;28680;45.642;13.756;2023-01-15T11:10:10;101115.94;;;11.50;100.00
35647;BME280;28680;45.642;13.756;2023-01-15T11:12:57;101108.75;;;11.41;100.00
35647;BME280;28680;45.642;13.756;2023-01-15T11:15:47;101104.34;;;11.42;100.00
35647;BME280;28680;45.642;13.756;2023-01-15T11:18:38;101109.09;;;11.37;100.00
35647;BME280;28680;45.642;13.756;2023-01-15T11:21:24;101106.13;;;11.41;100.00
35647;BME280;28680;45.642;13.756;2023-01-15T11:23:51;101105.41;;;11.39;100.00
35647;BME280;28680;45.642;13.756;2023-01-15T11:26:30;101106.38;;;11.38;100.00
35647;BME280;28680;45.642;13.756;2023-01-15T11:28:59;101114.81;;;11.19;100.00
35647;BME280;28680;45.642;13.756;2023-01-15T11:31:37;101117.19;;;11.22;100.00
35647;BME280;28680;45.642;13.756;2023-01-15T11:34:38;101105.81;;;11.10;100.00
35647;BME280;28680;45.642;13.756;2023-01-15T11:37:09;101104.47;;;11.05;100.00
35647;BME280;28680;45.642;13.756;2023-01-15T11:39:37;101088.59;;;11.06;100.00
35647;BME280;28680;45.642;13.756;2023-01-15T11:42:11;101085.47;;;11.01;100.00
35647;BME280;28680;45.642;13.756;2023-01-15T11:45:12;101075.31;;;10.97;100.00
35647;BME280;28680;45.642;13.756;2023-01-15T11:47:59;101069.69;;;10.90;100.00
35647;BME280;28680;45.642;13.756;2023-01-15T11:51:00;101065.03;;;10.93;100.00
35647;BME280;28680;45.642;13.756;2023-01-15T11:53:32;101052.50;;;10.97;100.00
35647;BME280;28680;45.642;13.756;2023-01-15T11:56:09;101042.72;;;10.99;100.00
35647;BME280;28680;45.642;13.756;2023-01-15T11:58:57;101029.25;;;11.04;100.00
35647;BME280;28680;45.642;13.756;2023-01-15T12:01:37;101017.94;;;11.15;100.00
35647;BME280;28680;45.642;13.756;2023-01-15T12:06:49;101010.03;;;11.15;100.00
35647;BME280;28680;45.642;13.756;2023-01-15T12:09:56;101002.53;;;11.10;100.00
35647;BME280;28680;45.642;13.756;2023-01-15T12:15:50;101000.72;;;11.10;100.00
35647;BME280;28680;45.642;13.756;2023-01-15T12:18:53;101003.13;;;11.14;100.00
35647;BME280;28680;45.642;13.756;2023-01-15T12:30:46;100965.47;;;11.02;100.00
35647;BME280;28680;45.642;13.756;2023-01-15T12:36:44;100966.81;;;11.07;100.00
35647;BME280;28680;45.642;13.756;2023-01-15T12:39:39;100963.34;;;11.07;100.00
35647;BME280;28680;45.642;13.756;2023-01-15T12:42:13;100965.03;;;11.08;100.00
35647;BME280;28680;45.642;13.756;2023-01-15T12:45:05;100958.69;;;11.10;100.00
35647;BME280;28680;45.642;13.756;2023-01-15T12:50:52;100944.03;;;11.08;100.00
35647;BME280;28680;45.642;13.756;2023-01-15T12:56:24;100933.97;;;11.13;100.00
35647;BME280;28680;45.642;13.756;2023-01-15T12:59:46;100932.91;;;11.16;100.00
35647;BME280;28680;45.642;13.756;2023-01-15T13:05:51;100934.22;;;11.10;100.00
35647;BME280;28680;45.642;13.756;2023-01-15T13:08:26;100928.59;;;11.15;100.00
35647;BME280;28680;45.642;13.756;2023-01-15T13:10:53;100932.66;;;11.19;100.00
35647;BME280;28680;45.642;13.756;2023-01-15T13:13:32;100932.31;;;11.12;100.00
35647;BME280;28680;45.642;13.756;2023-01-15T13:16:09;100926.34;;;11.10;100.00
35647;BME280;28680;45.642;13.756;2023-01-15T13:21:23;100924.44;;;11.12;100.00
35647;BME280;28680;45.642;13.756;2023-01-15T13:30:50;100925.03;;;11.04;100.00
35647;BME280;28680;45.642;13.756;2023-01-15T13:33:44;100920.72;;;11.03;100.00
35647;BME280;28680;45.642;13.756;2023-01-15T13:36:23;100927.88;;;11.01;100.00
35647;BME280;28680;45.642;13.756;2023-01-15T13:38:55;100931.09;;;10.93;100.00
35647;BME280;28680;45.642;13.756;2023-01-15T13:41:27;100919.50;;;10.85;100.00
35647;BME280;28680;45.642;13.756;2023-01-15T13:46:46;100905.91;;;10.80;100.00
35647;BME280;28680;45.642;13.756;2023-01-15T13:49:21;100907.69;;;10.79;100.00
35647;BME280;28680;45.642;13.756;2023-01-15T13:51:49;100916.13;;;10.71;100.00
35647;BME280;28680;45.642;13.756;2023-01-15T13:54:18;100909.72;;;10.76;100.00
35647;BME280;28680;45.642;13.756;2023-01-15T13:56:46;100909.34;;;10.69;100.00
35647;BME280;28680;45.642;13.756;2023-01-15T13:59:43;100918.06;;;10.69;100.00
35647;BME280;28680;45.642;13.756;2023-01-15T14:02:38;100918.06;;;10.69;100.00
35647;BME280;28680;45.642;13.756;2023-01-15T14:05:33;100914.09;;;10.64;100.00
35647;BME280;28680;45.642;13.756;2023-01-15T14:08:13;100924.38;;;10.67;100.00
35647;BME280;28680;45.642;13.756;2023-01-15T14:10:39;100915.91;;;10.63;100.00
35647;BME280;28680;45.642;13.756;2023-01-15T14:33:48;100941.22;;;10.64;100.00
35647;BME280;28680;45.642;13.756;2023-01-15T14:36:27;100935.22;;;10.62;100.00
35647;BME280;28680;45.642;13.756;2023-01-15T14:39:07;100939.53;;;10.63;100.00
35647;BME280;28680;45.642;13.756;2023-01-15T14:41:45;100935.00;;;10.65;100.00
35647;BME280;28680;45.642;13.756;2023-01-15T14:44:32;100938.81;;;10.61;100.00
35647;BME280;28680;45.642;13.756;2023-01-15T14:47:04;100942.63;;;10.57;100.00
35647;BME280;28680;45.642;13.756;2023-01-15T14:49:43;100932.00;;;10.59;100.00
35647;BME280;28680;45.642;13.756;2023-01-15T14:52:22;100928.31;;;10.61;100.00
35647;BME280;28680;45.642;13.756;2023-01-15T14:54:49;100928.31;;;10.61;100.00
35647;BME280;28680;45.642;13.756;2023-01-15T14:57:16;100920.66;;;10.58;100.00
35647;BME280;28680;45.642;13.756;2023-01-15T14:59:52;100919.72;;;10.59;100.00
35647;BME280;28680;45.642;13.756;2023-01-15T15:02:36;100912.56;;;10.61;100.00
35647;BME280;28680;45.642;13.756;2023-01-15T15:05:04;100913.38;;;10.62;100.00
35647;BME280;28680;45.642;13.756;2023-01-15T15:07:43;100913.28;;;10.63;100.00
35647;BME280;28680;45.642;13.756;2023-01-15T15:13:30;100906.59;;;10.59;100.00
35647;BME280;28680;45.642;13.756;2023-01-15T15:16:24;100909.94;;;10.61;100.00
35647;BME280;28680;45.642;13.756;2023-01-15T15:21:51;100901.84;;;10.64;100.00
35647;BME280;28680;45.642;13.756;2023-01-15T15:24:26;100892.38;;;10.62;100.00
35647;BME280;28680;45.642;13.756;2023-01-15T15:26:53;100876.31;;;10.66;100.00
35647;BME280;28680;45.642;13.756;2023-01-15T15:29:21;100881.78;;;10.63;100.00
35647;BME280;28680;45.642;13.756;2023-01-15T15:31:56;100874.97;;;10.61;100.00
35647;BME280;28680;45.642;13.756;2023-01-15T15:34:34;100880.22;;;10.61;100.00
35647;BME280;28680;45.642;13.756;2023-01-15T15:37:17;100870.56;;;10.61;100.00
35647;BME280;28680;45.642;13.756;2023-01-15T15:42:36;100864.59;;;10.59;100.00
35647;BME280;28680;45.642;13.756;2023-01-15T15:45:28;100869.25;;;10.56;100.00
35647;BME280;28680;45.642;13.756;2023-01-15T15:48:21;100859.69;;;10.54;100.00
35647;BME280;28680;45.642;13.756;2023-01-15T15:51:43;100874.38;;;10.57;100.00
35647;BME280;28680;45.642;13.756;2023-01-15T15:54:25;100863.03;;;10.57;100.00
35647;BME280;28680;45.642;13.756;2023-01-15T15:57:21;100867.72;;;10.64;100.00
35647;BME280;28680;45.642;13.756;2023-01-15T15:59:49;100864.34;;;10.62;100.00
35647;BME280;28680;45.642;13.756;2023-01-15T16:02:35;100868.03;;;10.60;100.00
35647;BME280;28680;45.642;13.756;2023-01-15T16:07:49;100879.75;;;10.56;100.00
35647;BME280;28680;45.642;13.756;2023-01-15T16:12:58;100862.31;;;10.54;100.00
35647;BME280;28680;45.642;13.756;2023-01-15T16:15:36;100864.22;;;10.52;100.00
35647;BME280;28680;45.642;13.756;2023-01-15T16:18:03;100859.81;;;10.53;100.00
35647;BME280;28680;45.642;13.756;2023-01-15T16:20:30;100854.06;;;10.48;100.00
35647;BME280;28680;45.642;13.756;2023-01-15T16:23:00;100854.19;;;10.46;100.00
35647;BME280;28680;45.642;13.756;2023-01-15T16:25:36;100851.44;;;10.48;100.00
35647;BME280;28680;45.642;13.756;2023-01-15T16:28:05;100852.16;;;10.50;100.00
35647;BME280;28680;45.642;13.756;2023-01-15T16:30:32;100862.66;;;10.50;100.00
35647;BME280;28680;45.642;13.756;2023-01-15T16:33:05;100862.56;;;10.51;100.00
35647;BME280;28680;45.642;13.756;2023-01-15T16:35:33;100860.41;;;10.57;100.00
35647;BME280;28680;45.642;13.756;2023-01-15T16:38:03;100843.00;;;10.56;100.00
35647;BME280;28680;45.642;13.756;2023-01-15T16:40:34;100838.56;;;10.56;100.00
35647;BME280;28680;45.642;13.756;2023-01-15T16:43:22;100829.75;;;10.57;100.00
35647;BME280;28680;45.642;13.756;2023-01-15T16:48:34;100828.31;;;10.53;100.00
35647;BME280;28680;45.642;13.756;2023-01-15T16:54:04;100826.53;;;10.53;100.00
35647;BME280;28680;45.642;13.756;2023-01-15T17:01:50;100836.44;;;10.50;100.00
35647;BME280;28680;45.642;13.756;2023-01-15T17:04:36;100839.88;;;10.62;100.00
35647;BME280;28680;45.642;13.756;2023-01-15T17:09:51;100841.91;;;10.58;100.00
35647;BME280;28680;45.642;13.756;2023-01-15T17:12:35;100836.19;;;10.53;100.00
35647;BME280;28680;45.642;13.756;2023-01-15T17:17:42;100842.38;;;10.52;100.00
35647;BME280;28680;45.642;13.756;2023-01-15T17:20:10;100844.06;;;10.53;100.00
35647;BME280;28680;45.642;13.756;2023-01-15T17:22:44;100849.91;;;10.45;100.00
35647;BME280;28680;45.642;13.756;2023-01-15T17:25:31;100845.38;;;10.47;100.00
35647;BME280;28680;45.642;13.756;2023-01-15T17:27:59;100854.19;;;10.46;100.00
35647;BME280;28680;45.642;13.756;2023-01-15T17:30:29;100859.22;;;10.49;100.00
35647;BME280;28680;45.642;13.756;2023-01-15T17:33:06;100848.81;;;10.48;100.00
35647;BME280;28680;45.642;13.756;2023-01-15T17:35:37;100855.72;;;10.49;100.00
35647;BME280;28680;45.642;13.756;2023-01-15T17:38:05;100854.91;;;10.48;100.00
35647;BME280;28680;45.642;13.756;2023-01-15T17:40:37;100875.75;;;10.39;100.00
35647;BME280;28680;45.642;13.756;2023-01-15T17:43:04;100864.78;;;10.45;100.00
35647;BME280;28680;45.642;13.756;2023-01-15T17:45:32;100851.69;;;10.45;100.00
35647;BME280;28680;45.642;13.756;2023-01-15T17:47:58;100850.84;;;10.44;100.00
35647;BME280;28680;45.642;13.756;2023-01-15T17:50:26;100853.25;;;10.47;100.00
35647;BME280;28680;45.642;13.756;2023-01-15T17:52:53;100844.66;;;10.45;100.00
35647;BME280;28680;45.642;13.756;2023-01-15T17:58:03;100850.97;;;10.43;100.00
35647;BME280;28680;45.642;13.756;2023-01-15T18:01:24;100848.44;;;10.41;100.00
35647;BME280;28680;45.642;13.756;2023-01-15T18:07:09;100827.72;;;10.49;100.00
35647;BME280;28680;45.642;13.756;2023-01-15T18:09:36;100842.63;;;10.49;100.00
35647;BME280;28680;45.642;13.756;2023-01-15T18:12:05;100829.25;;;10.52;100.00
35647;BME280;28680;45.642;13.756;2023-01-15T18:14:33;100840.25;;;10.46;100.00
35647;BME280;28680;45.642;13.756;2023-01-15T18:17:00;100836.53;;;10.48;100.00
35647;BME280;28680;45.642;13.756;2023-01-15T18:26:34;100829.84;;;10.44;100.00
35647;BME280;28680;45.642;13.756;2023-01-15T19:28:51;100719.88;;;10.52;100.00
35647;BME280;28680;45.642;13.756;2023-01-15T21:26:27;100537.78;;;10.97;100.00
35647;BME280;28680;45.642;13.756;2023-01-15T22:36:53;100384.75;;;11.66;100.00
35647;BME280;28680;45.642;13.756;2023-01-15T22:46:22;100396.44;;;11.52;100.00
35647;BME280;28680;45.642;13.756;2023-01-15T22:48:48;100383.72;;;11.48;100.00
